コロンボ の空港の天気 - METARとTAF

バンダラナイケ国際空港 ( VCBI / CMB ) - スリランカ コロンボ
飛行場実況気象(Metar)
観測時間07/22 06:40 IST (07/22 01:10 UTC)
風向・風速西南西 3m/s
視程10km以上
天気現象
全天の4割程度の雲 雲底高度 1370m
気温28℃
湿度74%
気圧1006hPa
METARVCBI 220110Z 25006KT 220V290 9999 SCT045 28/23 Q1006 NOSIG
過去の天気等 Google飛行場航空写真 Wunderground天気予報

過去48時間のMETAR

飛行場予報(TAF)
発表時間: 7/22 04:30 IST (7/21 23:00 UTC)
予報対象時間: 22日5時 IST ~ 23日11時 IST
風向・風速西南西 5m/s
視程10km以上
全天の8割程度の雲 雲底高度 550m
22日15時 IST ~ 22日18時 IST に 確率 30% で一時的に
視程6000m
TAF VCBI 212300Z 2200/2306 25010KT 9999 BKN018 TX30/2207Z TN26/2300Z
PROB30 TEMPO 2210/2213 6000 -TSRA/SHRA FEW012 BKN016